Time;durP1;ratioP1;P1;durP2;ratioP2;P2;SDS_P1;SDS_P2;PMS_P1;PMS_P2;Temp;Humidity;BMP_temperature;BMP_pressure;BME280_temperature;BME280_humidity;BME280_pressure;Samples;Min_cycle;Max_cycle;Signal;HPM_P1;HPM_P2
2021/05/13 00:01:51;;;;;;;5.85;5.00;;;;;;;14.35;82.44;96610.59;1661915;86;21067;-79
2021/05/13 00:04:18;;;;;;;6.37;5.28;;;;;;;14.32;83.77;96610.78;1673904;86;21626;-78
2021/05/13 00:06:44;;;;;;;6.78;5.05;;;;;;;14.33;82.89;96615.14;1677326;85;21527;-78
2021/05/13 00:09:11;;;;;;;5.72;4.78;;;;;;;14.38;82.74;96615.69;1666322;85;21081;-78
2021/05/13 00:11:42;;;;;;;6.92;5.12;;;;;;;14.39;82.83;96612.56;1683521;85;21085;-78
2021/05/13 00:14:09;;;;;;;4.90;4.05;;;;;;;14.42;82.64;96617.69;1678011;85;21091;-78
2021/05/13 00:16:38;;;;;;;6.25;5.33;;;;;;;14.46;82.39;96616.53;1672225;85;21054;-78
2021/05/13 00:19:12;;;;;;;5.30;4.80;;;;;;;14.54;82.78;96612.02;1690845;84;21057;-78
2021/05/13 00:21:42;;;;;;;6.85;4.65;;;;;;;14.61;83.49;96620.41;1627550;87;21072;-79
2021/05/13 00:24:12;;;;;;;8.98;5.75;;;;;;;14.65;82.25;96613.92;1620727;87;21546;-79
2021/05/13 00:26:42;;;;;;;5.00;4.40;;;;;;;14.71;82.17;96618.86;1628053;86;21114;-78
2021/05/13 00:29:13;;;;;;;4.83;4.17;;;;;;;14.76;82.61;96620.76;1635818;87;21078;-78
2021/05/13 00:31:41;;;;;;;5.47;4.40;;;;;;;14.75;84.39;96620.36;1635130;87;21098;-79
2021/05/13 00:34:08;;;;;;;5.70;4.87;;;;;;;14.72;83.27;96615.69;1635339;88;21104;-79
2021/05/13 00:36:38;;;;;;;5.40;4.90;;;;;;;14.63;82.88;96618.52;1659052;86;21058;-78
2021/05/13 00:39:08;;;;;;;6.80;4.85;;;;;;;14.58;83.22;96619.31;1669549;86;21054;-78
2021/05/13 00:41:35;;;;;;;6.42;5.78;;;;;;;14.50;82.82;96623.34;1663982;84;21520;-78
2021/05/13 00:44:06;;;;;;;5.80;5.30;;;;;;;14.47;81.26;96614.23;1664014;86;21066;-78
2021/05/13 00:46:34;;;;;;;6.85;5.25;;;;;;;14.43;82.30;96611.40;1630289;86;21094;-78
2021/05/13 00:49:04;;;;;;;6.78;5.03;;;;;;;14.35;83.58;96608.39;1626020;86;21075;-78
2021/05/13 00:51:31;;;;;;;7.20;5.40;;;;;;;14.24;83.81;96605.97;1633229;88;21624;-78
2021/05/13 00:53:58;;;;;;;6.58;5.05;;;;;;;14.17;82.44;96603.81;1636278;88;21505;-78
2021/05/13 00:56:28;;;;;;;8.18;5.75;;;;;;;14.11;83.35;96595.75;1657710;86;21074;-77
2021/05/13 00:58:59;;;;;;;6.72;5.60;;;;;;;14.13;81.98;96602.67;1673228;86;21113;-78
2021/05/13 01:01:26;;;;;;;7.22;5.75;;;;;;;14.13;83.52;96604.51;1664817;86;21066;-77
2021/05/13 01:03:53;;;;;;;6.67;6.05;;;;;;;14.10;81.80;96600.70;1664026;84;21082;-78
2021/05/13 01:06:20;;;;;;;6.92;6.22;;;;;;;14.08;84.16;96606.63;1647334;86;21089;-78
2021/05/13 01:08:48;;;;;;;7.67;6.33;;;;;;;14.03;82.44;96597.59;1635359;88;21549;-78
2021/05/13 01:11:15;;;;;;;7.33;6.12;;;;;;;14.03;82.31;96602.08;1629212;87;21673;-78
2021/05/13 01:14:10;;;;;;;6.05;5.10;;;;;;;14.00;82.75;96603.14;1608271;88;21119;-78
2021/05/13 01:16:33;;;;;;;7.50;5.72;;;;;;;13.97;84.31;96598.00;1637609;85;21047;-78
2021/05/13 01:18:55;;;;;;;6.83;6.05;;;;;;;13.95;82.15;96606.09;1652461;84;21551;-78
2021/05/13 01:21:21;;;;;;;8.25;6.70;;;;;;;13.97;82.09;96605.99;1652898;84;21652;-77
2021/05/13 01:23:48;;;;;;;9.33;6.90;;;;;;;13.94;82.14;96601.72;1667059;84;21141;-77
2021/05/13 01:26:17;;;;;;;8.25;6.28;;;;;;;13.96;82.60;96598.47;1697467;84;21046;-77
2021/05/13 01:28:43;;;;;;;9.23;7.00;;;;;;;13.94;83.00;96595.06;1700039;82;21138;-78
2021/05/13 01:31:10;;;;;;;6.85;6.15;;;;;;;13.93;83.01;96594.70;1700972;80;21077;-77
2021/05/13 01:33:37;;;;;;;10.15;6.30;;;;;;;13.91;82.83;96593.92;1703032;83;21378;-78
2021/05/13 01:36:04;;;;;;;5.80;4.95;;;;;;;13.94;83.57;96607.52;1687597;82;21064;-78
2021/05/13 01:38:31;;;;;;;7.15;5.10;;;;;;;13.94;83.25;96603.52;1628880;85;21049;-77
2021/05/13 01:41:01;;;;;;;6.97;4.95;;;;;;;13.97;83.38;96609.52;1646653;85;21051;-78
2021/05/13 01:43:29;;;;;;;5.20;4.80;;;;;;;14.00;83.52;96605.80;1717244;83;21069;-77
2021/05/13 01:45:58;;;;;;;5.12;4.62;;;;;;;14.04;83.84;96613.11;1733059;82;21066;-77
2021/05/13 01:48:24;;;;;;;7.45;4.25;;;;;;;14.08;84.71;96612.79;1733079;81;21099;-77
2021/05/13 01:50:51;;;;;;;6.37;4.60;;;;;;;14.13;85.86;96607.17;1731963;83;21101;-77
2021/05/13 01:53:18;;;;;;;5.85;4.28;;;;;;;14.16;85.25;96608.28;1719799;83;21033;-77
2021/05/13 01:55:45;;;;;;;6.75;4.62;;;;;;;14.11;85.58;96609.94;1730863;83;21068;-77
2021/05/13 01:58:12;;;;;;;4.85;4.45;;;;;;;14.15;85.38;96616.40;1730861;83;21049;-78
2021/05/13 02:00:44;;;;;;;5.95;4.72;;;;;;;14.19;85.26;96608.55;1730848;83;21061;-78
2021/05/13 02:03:10;;;;;;;7.22;4.60;;;;;;;14.21;85.30;96612.82;1688687;83;21065;-78
2021/05/13 02:05:37;;;;;;;5.55;3.87;;;;;;;14.22;85.73;96611.89;1701480;83;21053;-78
2021/05/13 02:08:05;;;;;;;5.72;3.92;;;;;;;14.27;85.73;96606.73;1692337;84;21086;-78
2021/05/13 02:10:33;;;;;;;6.12;4.70;;;;;;;14.30;85.83;96603.38;1691971;85;21515;-78
2021/05/13 02:13:00;;;;;;;6.78;5.10;;;;;;;14.29;85.89;96602.14;1692030;85;21559;-78
2021/05/13 02:15:27;;;;;;;6.92;5.28;;;;;;;14.25;85.64;96606.34;1691817;85;21054;-79
2021/05/13 02:17:54;;;;;;;6.10;5.47;;;;;;;14.31;85.52;96598.88;1691428;85;21081;-78
2021/05/13 02:20:23;;;;;;;6.70;5.45;;;;;;;14.36;85.17;96600.76;1691603;84;21070;-78
2021/05/13 02:22:50;;;;;;;7.37;5.85;;;;;;;14.35;84.97;96607.92;1690390;83;21512;-78
2021/05/13 02:25:16;;;;;;;6.30;5.33;;;;;;;14.36;85.12;96598.09;1687748;85;21039;-79
2021/05/13 02:27:43;;;;;;;6.00;5.33;;;;;;;14.34;84.73;96602.22;1668639;83;21531;-78
2021/05/13 02:30:13;;;;;;;6.85;5.85;;;;;;;14.29;84.45;96595.48;1690261;85;21058;-78
2021/05/13 02:32:41;;;;;;;7.08;6.10;;;;;;;14.26;84.40;96592.55;1672829;83;21030;-78
2021/05/13 02:35:11;;;;;;;8.83;6.42;;;;;;;14.20;84.28;96598.30;1687851;85;21055;-78
2021/05/13 02:37:38;;;;;;;6.42;5.58;;;;;;;14.16;85.56;96596.78;1687657;85;21556;-78
2021/05/13 02:40:07;;;;;;;7.83;6.75;;;;;;;14.13;84.47;96593.85;1687735;84;21050;-78
2021/05/13 02:42:35;;;;;;;7.78;6.33;;;;;;;14.08;84.36;96596.80;1696868;83;21014;-77
2021/05/13 02:45:04;;;;;;;7.97;6.70;;;;;;;14.03;84.95;96594.92;1720319;83;21058;-77
2021/05/13 02:47:30;;;;;;;7.80;7.00;;;;;;;13.97;84.49;96604.20;1720423;83;21191;-78
2021/05/13 02:49:57;;;;;;;7.95;7.15;;;;;;;13.84;87.92;96604.13;1720500;83;21077;-77
2021/05/13 02:52:24;;;;;;;8.73;6.65;;;;;;;13.81;85.90;96608.80;1661962;84;21490;-77
2021/05/13 02:54:50;;;;;;;8.18;7.37;;;;;;;13.78;85.49;96609.02;1622152;88;21120;-77
2021/05/13 02:57:17;;;;;;;8.68;6.40;;;;;;;13.77;85.82;96601.95;1648892;86;21076;-77
2021/05/13 03:02:11;;;;;;;7.90;7.10;;;;;;;13.79;85.77;96608.06;1649069;85;21084;-76
2021/05/13 03:04:38;;;;;;;7.92;7.12;;;;;;;13.78;85.95;96597.88;1646517;87;21071;-76
2021/05/13 03:07:05;;;;;;;7.53;6.72;;;;;;;13.75;85.85;96596.76;1650034;87;21412;-77
2021/05/13 03:09:35;;;;;;;8.23;7.35;;;;;;;13.78;86.03;96603.20;1643470;87;21563;-77
2021/05/13 03:12:01;;;;;;;10.60;8.40;;;;;;;13.72;86.03;96595.62;1667361;83;21043;-77
2021/05/13 03:14:27;;;;;;;8.30;7.50;;;;;;;13.72;85.89;96583.64;1729842;83;21153;-77
2021/05/13 03:16:55;;;;;;;7.83;6.92;;;;;;;13.75;86.42;96587.44;1697462;83;21041;-77
2021/05/13 03:19:29;;;;;;;8.05;6.87;;;;;;;13.71;88.61;96589.92;1681473;85;21071;-77
2021/05/13 03:21:53;;;;;;;6.87;6.25;;;;;;;13.72;86.92;96587.63;1658868;85;21062;-77
2021/05/13 03:24:33;;;;;;;7.83;6.58;;;;;;;13.77;86.77;96585.52;1679600;83;21114;-77
2021/05/13 03:27:02;;;;;;;9.03;7.00;;;;;;;13.83;87.10;96591.77;1683357;83;21063;-77
2021/05/13 03:29:23;;;;;;;6.35;5.45;;;;;;;13.88;86.68;96599.47;1683575;84;21018;-77
2021/05/13 03:31:50;;;;;;;7.53;5.42;;;;;;;13.95;87.09;96603.42;1684268;84;21050;-77
2021/05/13 03:34:16;;;;;;;6.05;5.08;;;;;;;13.98;88.39;96597.04;1730868;83;21005;-77
2021/05/13 03:36:43;;;;;;;5.53;4.35;;;;;;;13.99;88.04;96591.62;1725701;83;21491;-77
2021/05/13 03:39:11;;;;;;;7.37;5.55;;;;;;;13.96;87.03;96590.97;1726010;83;21077;-77
2021/05/13 03:41:37;;;;;;;6.12;4.90;;;;;;;14.03;86.89;96594.92;1708360;82;21075;-77
2021/05/13 03:44:05;;;;;;;6.65;5.35;;;;;;;14.10;86.78;96587.38;1678040;83;21097;-77
2021/05/13 03:46:32;;;;;;;5.92;4.50;;;;;;;14.17;86.62;96586.50;1659582;86;21536;-78
2021/05/13 03:48:58;;;;;;;9.00;5.10;;;;;;;14.18;88.73;96590.86;1685039;83;21353;-77
2021/05/13 03:51:25;;;;;;;5.40;4.75;;;;;;;14.19;87.06;96592.10;1695759;83;21033;-77
2021/05/13 03:53:52;;;;;;;7.15;4.95;;;;;;;14.25;87.23;96590.84;1686429;83;21079;-77
2021/05/13 03:56:18;;;;;;;6.25;5.42;;;;;;;14.27;86.62;96601.41;1684597;84;21105;-77
2021/05/13 03:58:55;;;;;;;6.12;5.53;;;;;;;14.27;86.58;96600.08;1683318;84;21524;-76
2021/05/13 04:01:41;;;;;;;;;;;;;;;14.19;86.31;96613.42;1705706;83;21173;-77
2021/05/13 04:03:56;;;;;;;7.12;5.78;;;;;;;14.11;86.23;96616.59;1723490;82;20147;-77
2021/05/13 04:06:23;;;;;;;7.20;5.33;;;;;;;14.09;86.75;96613.66;1715694;83;21069;-77
2021/05/13 04:08:50;;;;;;;7.05;5.67;;;;;;;14.11;85.97;96605.06;1679424;85;21111;-77
2021/05/13 04:11:17;;;;;;;9.03;6.30;;;;;;;14.09;85.58;96605.66;1665952;84;21057;-77
2021/05/13 04:13:44;;;;;;;8.08;6.60;;;;;;;14.05;86.02;96594.36;1678192;85;21051;-77
2021/05/13 04:16:12;;;;;;;8.80;6.78;;;;;;;14.06;86.99;96599.19;1654407;86;21075;-75
2021/05/13 04:18:39;;;;;;;10.50;7.25;;;;;;;14.09;85.84;96598.53;1683500;85;21213;-76
2021/05/13 04:21:06;;;;;;;8.15;6.83;;;;;;;14.11;85.58;96602.41;1694024;84;21500;-76
2021/05/13 04:23:33;;;;;;;10.63;6.90;;;;;;;14.11;85.81;96601.94;1713226;84;21014;-76
2021/05/13 04:25:59;;;;;;;9.35;7.10;;;;;;;14.13;85.91;96601.34;1713494;84;21082;-75
2021/05/13 04:28:26;;;;;;;7.45;6.50;;;;;;;14.12;85.97;96598.81;1713393;84;21042;-76
2021/05/13 04:30:52;;;;;;;10.55;7.67;;;;;;;14.11;86.12;96593.95;1705935;83;21038;-76
2021/05/13 04:33:19;;;;;;;9.03;7.40;;;;;;;14.13;86.66;96593.35;1674952;85;21083;-76
2021/05/13 04:35:46;;;;;;;10.65;8.10;;;;;;;14.15;86.19;96596.42;1666897;85;21034;-77
2021/05/13 04:38:15;;;;;;;8.68;7.12;;;;;;;14.17;86.51;96603.35;1654061;86;21050;-77
2021/05/13 04:40:41;;;;;;;9.73;7.40;;;;;;;14.14;88.36;96600.88;1654790;85;21067;-77
2021/05/13 04:43:09;;;;;;;8.68;7.45;;;;;;;14.14;87.35;96608.87;1677664;85;21094;-77
2021/05/13 04:45:36;;;;;;;9.35;6.95;;;;;;;14.15;86.60;96607.08;1682175;85;21511;-77
2021/05/13 04:48:07;;;;;;;8.18;7.15;;;;;;;14.15;86.93;96606.58;1678126;85;21051;-77
2021/05/13 04:50:32;;;;;;;9.08;6.70;;;;;;;14.14;86.28;96604.88;1651450;86;21063;-77
2021/05/13 04:53:03;;;;;;;8.18;6.60;;;;;;;14.13;87.64;96604.51;1676753;85;21108;-76
2021/05/13 04:55:27;;;;;;;6.37;5.50;;;;;;;14.12;87.39;96605.47;1661368;86;21047;-77
2021/05/13 04:57:55;;;;;;;6.85;6.15;;;;;;;14.15;87.11;96609.24;1663741;85;21047;-76
2021/05/13 05:00:22;;;;;;;5.55;4.95;;;;;;;14.20;86.25;96606.29;1661867;86;21515;-77
2021/05/13 05:02:48;;;;;;;6.55;4.62;;;;;;;14.23;86.56;96600.73;1656153;85;21032;-76
2021/05/13 05:05:15;;;;;;;4.65;4.15;;;;;;;14.25;87.54;96595.67;1654560;86;21043;-77
2021/05/13 05:07:42;;;;;;;6.92;4.45;;;;;;;14.26;87.69;96599.21;1683397;84;21198;-77
2021/05/13 05:10:09;;;;;;;6.12;4.12;;;;;;;14.30;86.43;96595.85;1652642;87;21047;-77
2021/05/13 05:12:36;;;;;;;6.33;4.95;;;;;;;14.37;86.72;96602.49;1679417;85;21066;-77
2021/05/13 05:15:04;;;;;;;9.10;5.22;;;;;;;14.44;86.33;96605.56;1653146;86;21039;-77
2021/05/13 05:17:31;;;;;;;9.73;4.83;;;;;;;14.49;86.50;96600.81;1682458;85;21074;-77
2021/05/13 05:19:57;;;;;;;7.10;4.53;;;;;;;14.57;86.86;96605.62;1648116;86;21151;-77
2021/05/13 05:22:24;;;;;;;6.85;4.25;;;;;;;14.64;86.38;96602.42;1677884;83;21141;-77
2021/05/13 05:24:51;;;;;;;7.05;4.33;;;;;;;14.74;86.12;96597.79;1668208;85;21543;-76
2021/05/13 05:27:17;;;;;;;7.15;4.22;;;;;;;14.78;86.06;96607.30;1654135;86;21042;-77
2021/05/13 05:29:44;;;;;;;5.03;4.50;;;;;;;14.76;85.82;96601.23;1654251;87;21053;-77
2021/05/13 05:32:10;;;;;;;5.58;4.50;;;;;;;14.74;85.06;96603.95;1674545;83;21031;-77
2021/05/13 05:34:38;;;;;;;6.72;4.12;;;;;;;14.72;85.05;96605.02;1672235;85;21586;-77
2021/05/13 05:37:04;;;;;;;6.47;4.20;;;;;;;14.75;85.13;96603.02;1652551;85;21472;-77
2021/05/13 05:39:31;;;;;;;8.00;5.15;;;;;;;14.81;84.54;96604.42;1669867;85;21515;-77
2021/05/13 05:41:58;;;;;;;5.87;4.65;;;;;;;14.86;84.97;96602.79;1677833;83;21059;-77
2021/05/13 05:44:24;;;;;;;4.78;3.75;;;;;;;14.91;84.87;96598.81;1677970;85;21563;-77
2021/05/13 05:46:51;;;;;;;4.97;4.37;;;;;;;14.98;84.31;96597.05;1679416;83;21050;-77
2021/05/13 05:49:18;;;;;;;6.90;4.45;;;;;;;15.01;83.97;96596.38;1670098;85;21077;-77
2021/05/13 05:51:46;;;;;;;6.40;4.70;;;;;;;15.04;83.61;96600.64;1678933;84;21003;-77
2021/05/13 05:54:12;;;;;;;7.78;4.65;;;;;;;15.04;83.40;96600.14;1656364;85;21587;-77
2021/05/13 05:56:38;;;;;;;7.03;3.95;;;;;;;15.07;83.15;96600.91;1678026;85;21031;-78
2021/05/13 05:59:06;;;;;;;4.42;4.03;;;;;;;15.08;82.75;96603.94;1702286;83;21017;-78
2021/05/13 06:01:38;;;;;;;10.65;7.28;;;;;;;15.08;82.67;96606.14;1676149;85;21146;-78
2021/05/13 06:04:08;;;;;;;6.40;5.55;;;;;;;15.10;82.23;96604.67;1683094;83;21062;-78
2021/05/13 06:06:37;;;;;;;7.65;4.80;;;;;;;15.09;82.50;96605.17;1652772;85;21088;-78
2021/05/13 06:09:05;;;;;;;7.53;4.50;;;;;;;15.13;82.41;96609.34;1675225;85;21082;-77
2021/05/13 06:11:32;;;;;;;6.25;4.55;;;;;;;15.15;82.36;96602.53;1676369;84;21079;-77
2021/05/13 06:13:58;;;;;;;6.17;4.92;;;;;;;15.20;81.91;96600.39;1644787;86;21078;-78
2021/05/13 06:16:25;;;;;;;7.12;5.53;;;;;;;15.24;81.65;96591.70;1654626;86;21098;-78
2021/05/13 06:18:55;;;;;;;7.28;5.28;;;;;;;15.28;81.99;96602.04;1672580;85;21101;-78
2021/05/13 06:21:22;;;;;;;6.50;3.92;;;;;;;15.34;81.62;96606.56;1687743;85;21054;-79
2021/05/13 06:23:54;;;;;;;6.67;4.12;;;;;;;15.36;81.26;96608.16;1687751;85;21083;-78
2021/05/13 06:26:24;;;;;;;4.50;3.55;;;;;;;15.42;81.10;96604.21;1687708;85;21106;-78
2021/05/13 06:28:51;;;;;;;4.33;3.50;;;;;;;15.50;80.98;96602.32;1666033;85;21575;-78
2021/05/13 06:31:18;;;;;;;7.03;5.12;;;;;;;15.60;80.96;96606.03;1687692;85;21031;-78
2021/05/13 06:33:44;;;;;;;5.92;3.35;;;;;;;15.71;80.81;96599.91;1658660;84;21038;-77
2021/05/13 06:36:11;;;;;;;5.80;3.20;;;;;;;15.79;80.27;96610.04;1657137;85;21094;-77
2021/05/13 06:38:37;;;;;;;6.42;3.33;;;;;;;15.91;80.40;96596.27;1651239;84;21065;-77
2021/05/13 06:41:06;;;;;;;4.90;4.40;;;;;;;15.97;79.47;96599.84;1660055;86;21058;-77
2021/05/13 06:43:34;;;;;;;5.87;4.05;;;;;;;16.00;79.26;96599.63;1674544;85;20996;-76
2021/05/13 06:46:01;;;;;;;4.95;3.35;;;;;;;16.02;78.88;96594.17;1666328;85;21624;-79
2021/05/13 06:48:28;;;;;;;5.55;3.70;;;;;;;15.95;78.25;96595.94;1666906;85;21022;-79
2021/05/13 06:50:54;;;;;;;5.20;3.10;;;;;;;15.95;78.49;96596.45;1681463;85;21062;-78
2021/05/13 06:53:21;;;;;;;6.58;3.35;;;;;;;15.87;77.82;96590.30;1659176;85;21086;-79
2021/05/13 06:55:52;;;;;;;4.22;3.40;;;;;;;15.80;78.23;96587.70;1669805;85;21047;-78
2021/05/13 06:58:16;;;;;;;5.40;3.65;;;;;;;15.81;78.20;96586.72;1675429;85;21568;-77
2021/05/13 07:00:43;;;;;;;4.78;3.45;;;;;;;15.79;78.44;96580.66;1680490;85;21582;-77
2021/05/13 07:03:09;;;;;;;4.65;3.50;;;;;;;15.79;78.20;96582.86;1663714;85;21111;-77
2021/05/13 07:05:36;;;;;;;4.72;3.35;;;;;;;15.74;77.92;96576.97;1667211;85;21046;-79
2021/05/13 07:08:04;;;;;;;7.03;3.70;;;;;;;15.68;77.29;96574.76;1674045;84;21052;-78
2021/05/13 07:10:34;;;;;;;7.50;4.35;;;;;;;15.67;77.91;96581.07;1653034;84;21097;-77
2021/05/13 07:13:01;;;;;;;4.65;3.83;;;;;;;15.63;77.75;96575.58;1647912;86;21112;-79
2021/05/13 07:15:27;;;;;;;5.50;4.40;;;;;;;15.67;77.84;96572.59;1655364;86;21584;-78
2021/05/13 07:17:55;;;;;;;4.85;4.25;;;;;;;15.70;77.39;96576.85;1656228;85;21073;-79
2021/05/13 07:20:22;;;;;;;7.62;5.00;;;;;;;15.74;77.26;96572.13;1671681;85;21054;-78
2021/05/13 07:22:52;;;;;;;7.83;4.95;;;;;;;15.75;77.01;96567.15;1665205;85;21079;-78
2021/05/13 07:25:20;;;;;;;5.55;4.00;;;;;;;15.82;76.87;96571.92;1661120;85;21048;-77
2021/05/13 07:27:47;;;;;;;10.08;4.17;;;;;;;15.93;77.00;96569.83;1660549;85;21511;-81
2021/05/13 07:30:15;;;;;;;5.87;4.40;;;;;;;16.05;77.21;96569.88;1660914;85;21560;-77
2021/05/13 07:32:43;;;;;;;6.00;4.50;;;;;;;16.14;76.28;96559.83;1664600;85;21042;-75
2021/05/13 07:35:13;;;;;;;4.58;4.17;;;;;;;16.22;76.25;96565.46;1655885;85;21513;-76
2021/05/13 07:37:39;;;;;;;9.10;4.40;;;;;;;16.34;75.88;96560.14;1667916;85;21518;-76
2021/05/13 07:40:08;;;;;;;4.47;3.85;;;;;;;16.43;75.04;96554.56;1658285;85;21026;-76
2021/05/13 07:42:35;;;;;;;9.28;4.60;;;;;;;16.47;74.79;96552.03;1636896;87;21050;-76
2021/05/13 07:45:01;;;;;;;6.40;4.20;;;;;;;16.61;74.57;96554.48;1592233;89;21537;-76
2021/05/13 07:47:28;;;;;;;7.72;3.62;;;;;;;16.81;74.57;96540.55;1624943;88;21041;-75
2021/05/13 07:49:54;;;;;;;5.03;3.50;;;;;;;16.98;73.63;96544.06;1625404;87;21400;-76
2021/05/13 07:52:23;;;;;;;6.03;3.70;;;;;;;17.15;72.60;96534.72;1634285;86;21116;-74
2021/05/13 07:54:49;;;;;;;4.33;3.17;;;;;;;17.32;72.94;96538.36;1636016;86;21074;-75
2021/05/13 07:57:16;;;;;;;4.25;2.90;;;;;;;17.46;72.07;96530.55;1636297;88;21472;-75
2021/05/13 07:59:42;;;;;;;3.35;2.87;;;;;;;17.55;71.31;96533.34;1639160;86;21085;-74
2021/05/13 08:02:11;;;;;;;5.30;3.05;;;;;;;17.75;71.42;96526.83;1652540;87;21545;-74
2021/05/13 08:04:37;;;;;;;3.90;3.22;;;;;;;17.94;69.72;96522.12;1653845;85;21047;-74
2021/05/13 08:07:04;;;;;;;5.45;2.95;;;;;;;18.10;70.37;96524.05;1612456;87;21034;-72
2021/05/13 08:09:33;;;;;;;6.85;3.33;;;;;;;18.19;68.53;96522.77;1670000;83;21139;-74
2021/05/13 08:11:59;;;;;;;5.92;3.25;;;;;;;18.19;68.07;96518.75;1702049;84;21489;-74
2021/05/13 08:14:25;;;;;;;4.70;3.75;;;;;;;18.25;68.57;96515.18;1695057;83;21060;-72
2021/05/13 08:16:52;;;;;;;6.87;3.83;;;;;;;18.37;67.44;96511.47;1694219;83;21033;-73
2021/05/13 08:19:19;;;;;;;10.23;3.60;;;;;;;18.44;67.77;96515.31;1700549;83;21056;-74
2021/05/13 08:21:45;;;;;;;6.95;3.20;;;;;;;18.47;66.30;96507.49;1694946;84;21748;-74
2021/05/13 08:24:12;;;;;;;5.95;3.40;;;;;;;18.48;65.99;96518.61;1661822;85;21052;-73
2021/05/13 08:26:38;;;;;;;4.20;3.42;;;;;;;18.52;65.29;96502.58;1679310;85;21056;-73
2021/05/13 08:29:05;;;;;;;7.35;3.22;;;;;;;18.60;65.88;96500.57;1690652;84;21143;-74
2021/05/13 08:31:31;;;;;;;7.08;3.00;;;;;;;18.73;64.21;96499.05;1669156;84;21029;-74
2021/05/13 08:33:58;;;;;;;6.05;3.42;;;;;;;18.93;65.40;96503.16;1676591;85;21053;-73
2021/05/13 08:36:24;;;;;;;3.98;2.83;;;;;;;19.06;63.54;96505.64;1676677;85;21038;-73
2021/05/13 08:38:51;;;;;;;5.83;3.20;;;;;;;19.03;63.27;96500.02;1676497;85;21052;-73
2021/05/13 08:41:18;;;;;;;4.42;3.20;;;;;;;19.03;62.50;96500.50;1667944;85;21048;-73
2021/05/13 08:43:51;;;;;;;5.45;3.20;;;;;;;18.98;63.17;96501.75;1634889;87;21079;-73
2021/05/13 08:46:19;;;;;;;3.95;3.25;;;;;;;18.94;62.83;96503.00;1662740;84;21525;-74
2021/05/13 08:48:48;;;;;;;4.37;3.10;;;;;;;18.94;63.11;96507.02;1659159;85;21067;-74
2021/05/13 08:51:17;;;;;;;5.12;2.60;;;;;;;18.93;62.90;96507.19;1660085;85;21049;-75
2021/05/13 08:53:57;;;;;;;5.47;3.10;;;;;;;18.84;63.01;96512.84;1690006;84;21061;-75
2021/05/13 08:56:23;;;;;;;5.15;3.20;;;;;;;18.76;63.32;96508.66;1689329;84;21533;-74
2021/05/13 08:58:50;;;;;;;3.52;3.22;;;;;;;18.60;64.29;96512.64;1695129;83;21016;-75
2021/05/13 09:01:24;;;;;;;4.85;3.60;;;;;;;18.46;64.60;96508.48;1684060;84;21077;-74
2021/05/13 09:03:55;;;;;;;6.35;3.95;;;;;;;18.29;65.03;96507.23;1680425;85;21080;-74
2021/05/13 09:06:29;;;;;;;5.00;4.20;;;;;;;18.05;68.03;96515.87;1682451;83;21147;-74
2021/05/13 09:08:58;;;;;;;5.53;4.20;;;;;;;17.87;70.75;96512.04;1689188;83;21157;-74
2021/05/13 09:11:25;;;;;;;4.97;4.05;;;;;;;17.68;68.49;96510.87;1669333;85;21065;-74
2021/05/13 09:14:02;;;;;;;4.22;3.42;;;;;;;17.51;69.28;96502.42;1685539;84;21106;-75
2021/05/13 09:16:35;;;;;;;3.52;2.75;;;;;;;17.39;69.53;96502.93;1696577;84;21066;-75
2021/05/13 09:19:33;;;;;;;6.08;3.70;;;;;;;17.33;69.05;96502.58;1684150;84;21072;-74
2021/05/13 09:22:06;;;;;;;4.58;2.40;;;;;;;17.32;68.85;96504.42;1688567;84;21101;-75
2021/05/13 09:25:00;;;;;;;2.55;2.05;;;;;;;17.30;68.75;96509.53;1666204;84;21064;-75
2021/05/13 09:27:51;;;;;;;2.62;2.20;;;;;;;17.22;68.61;96502.96;1693510;84;21115;-75
2021/05/13 09:30:21;;;;;;;3.77;2.50;;;;;;;17.10;69.05;96495.91;1668806;85;21047;-75
2021/05/13 09:32:56;;;;;;;6.22;2.35;;;;;;;16.98;70.03;96492.39;1678283;84;21061;-74
2021/05/13 09:35:27;;;;;;;8.18;2.70;;;;;;;16.94;69.52;96486.41;1697863;84;21073;-76
2021/05/13 09:38:01;;;;;;;5.42;2.50;;;;;;;16.92;69.66;96491.52;1700845;83;21109;-85
2021/05/13 09:40:40;;;;;;;5.03;2.67;;;;;;;16.89;70.00;96488.59;1707098;82;21025;-82
2021/05/13 09:43:19;;;;;;;7.05;2.52;;;;;;;16.87;69.47;96486.55;1707319;83;21025;-80
2021/05/13 09:46:01;;;;;;;10.35;3.05;;;;;;;16.85;68.90;96479.11;1700853;83;21059;-80
2021/05/13 09:48:43;;;;;;;6.70;3.35;;;;;;;16.88;68.73;96471.71;1690748;83;21068;-81
2021/05/13 09:51:37;;;;;;;6.83;3.75;;;;;;;17.01;69.18;96472.05;1727148;83;21751;-77
2021/05/13 09:54:17;;;;;;;3.83;3.45;;;;;;;17.13;69.59;96474.26;1723361;83;21038;-80
2021/05/13 09:56:54;;;;;;;4.58;3.70;;;;;;;17.23;68.84;96461.83;1686859;83;21514;-80
2021/05/13 09:59:34;;;;;;;11.08;4.30;;;;;;;17.35;68.58;96468.52;1689467;82;21043;-80
2021/05/13 10:02:05;;;;;;;4.85;3.80;;;;;;;17.48;69.10;96468.34;1702667;84;21014;-80
2021/05/13 10:04:32;;;;;;;6.97;3.37;;;;;;;17.65;68.71;96464.27;1690044;84;21041;-81
2021/05/13 10:07:00;;;;;;;7.08;3.40;;;;;;;17.80;67.45;96457.63;1688908;83;21024;-80
2021/05/13 10:09:27;;;;;;;5.58;3.83;;;;;;;18.00;67.50;96459.59;1689722;84;21061;-80
2021/05/13 10:11:59;;;;;;;4.45;3.40;;;;;;;18.24;66.85;96447.80;1689339;85;21008;-80
2021/05/13 10:14:28;;;;;;;6.65;3.37;;;;;;;18.44;67.23;96446.08;1685406;85;21062;-80
2021/05/13 10:17:03;;;;;;;4.90;3.42;;;;;;;18.55;65.95;96453.17;1695232;83;21499;-81
2021/05/13 10:19:35;;;;;;;4.65;3.50;;;;;;;18.54;65.38;96447.45;1682050;85;21309;-81
2021/05/13 10:22:03;;;;;;;3.83;3.15;;;;;;;18.50;65.68;96450.91;1674089;84;21020;-81
2021/05/13 10:24:30;;;;;;;6.42;3.67;;;;;;;18.41;65.25;96455.25;1677223;84;21295;-81
2021/05/13 10:26:56;;;;;;;3.85;3.17;;;;;;;18.33;64.60;96440.30;1671429;85;21072;-80
2021/05/13 10:29:28;;;;;;;5.30;3.37;;;;;;;18.20;63.58;96435.98;1707338;83;21519;-80
2021/05/13 10:32:14;;;;;;;6.25;3.72;;;;;;;18.14;64.73;96429.81;1725585;83;21023;-81
2021/05/13 10:34:54;;;;;;;5.60;3.75;;;;;;;18.10;65.15;96421.67;1725508;83;21602;-80
2021/05/13 10:37:35;;;;;;;9.28;4.10;;;;;;;18.12;65.60;96422.41;1711238;83;21044;-80
2021/05/13 10:43:04;;;;;;;7.62;4.60;;;;;;;17.97;67.78;96413.80;1637586;86;21075;-79
2021/05/13 10:45:39;;;;;;;6.65;4.65;;;;;;;17.81;67.71;96409.75;1660057;85;21118;-78
2021/05/13 10:48:26;;;;;;;10.00;5.72;;;;;;;17.70;67.91;96407.61;1677878;83;21044;-82
2021/05/13 10:51:10;;;;;;;7.28;5.08;;;;;;;17.58;69.30;96418.39;1666036;85;21031;-82
2021/05/13 10:53:44;;;;;;;12.33;5.28;;;;;;;17.47;68.86;96411.25;1661305;86;21588;-81
2021/05/13 10:56:29;;;;;;;10.78;5.15;;;;;;;17.38;69.10;96421.38;1685806;85;21565;-81
2021/05/13 10:59:10;;;;;;;8.93;4.97;;;;;;;17.27;69.40;96427.13;1679617;85;21079;-82
2021/05/13 11:01:53;;;;;;;5.05;4.50;;;;;;;17.17;69.61;96432.88;1676422;85;21053;-81
2021/05/13 11:04:31;;;;;;;6.10;4.92;;;;;;;17.00;71.68;96445.80;1683722;85;21108;-80
2021/05/13 11:06:58;;;;;;;8.40;4.97;;;;;;;16.89;73.30;96445.31;1688922;83;21088;-80
2021/05/13 11:09:46;;;;;;;9.25;4.70;;;;;;;16.83;72.90;96445.81;1692589;83;22279;-80
2021/05/13 11:12:17;;;;;;;4.90;4.10;;;;;;;16.76;73.96;96450.80;1690175;84;21093;-80
2021/05/13 11:15:09;;;;;;;5.17;3.22;;;;;;;16.64;74.05;96465.13;1687024;84;21052;-81
2021/05/13 11:17:56;;;;;;;4.08;3.62;;;;;;;16.56;74.53;96471.09;1695659;83;21511;-82
2021/05/13 11:20:46;;;;;;;3.30;2.20;;;;;;;16.49;75.67;96493.95;1662384;86;21547;-80
2021/05/13 11:23:31;;;;;;;3.83;2.27;;;;;;;16.19;71.57;96509.55;1661391;86;21167;-80
2021/05/13 11:26:01;;;;;;;;;;;;;;;15.94;72.46;96501.20;1694038;84;21057;-78
2021/05/13 11:28:36;;;;;;;2.37;1.70;;;;;;;15.75;73.94;96492.37;1691017;83;20266;-78
2021/05/13 11:31:12;;;;;;;2.58;2.05;;;;;;;16.03;71.24;96490.32;1686637;83;21709;-81
2021/05/13 11:33:50;;;;;;;3.83;1.80;;;;;;;17.22;66.88;96483.36;1696606;84;21124;-81
2021/05/13 11:36:30;;;;;;;2.40;1.55;;;;;;;18.14;62.97;96478.07;1691001;83;21135;-81
2021/05/13 11:39:09;;;;;;;3.60;1.47;;;;;;;19.11;59.85;96467.98;1686719;85;21543;-80
2021/05/13 11:41:32;;;;;;;2.35;1.45;;;;;;;19.96;56.17;96459.13;1685643;85;21053;-79
2021/05/13 11:43:59;;;;;;;5.53;1.80;;;;;;;20.64;52.58;96454.10;1687218;85;21054;-80
2021/05/13 11:46:29;;;;;;;2.47;1.30;;;;;;;21.17;50.95;96453.12;1688152;83;21072;-81
2021/05/13 11:48:57;;;;;;;3.50;1.30;;;;;;;20.76;51.04;96450.73;1690785;85;21077;-80
2021/05/13 11:51:32;;;;;;;2.12;1.35;;;;;;;20.23;50.01;96457.55;1689640;85;21626;-81